createdAt,value
2022-09-01T03:58:25.658Z,1016.85
2022-09-01T03:59:25.623Z,1016.84
2022-09-01T04:00:25.606Z,1016.87
2022-09-01T04:01:25.690Z,1016.90
2022-09-01T04:02:24.029Z,1016.89
2022-09-01T04:03:29.089Z,1016.89
2022-09-01T04:04:25.611Z,1016.91
2022-09-01T04:05:25.604Z,1016.91
2022-09-01T04:06:25.605Z,1016.92
2022-09-01T04:07:25.597Z,1016.91
2022-09-01T04:08:25.643Z,1016.90
2022-09-01T04:09:25.628Z,1016.87
2022-09-01T04:10:25.600Z,1016.88
2022-09-01T04:11:25.617Z,1016.87
2022-09-01T04:12:25.605Z,1016.85
2022-09-01T04:13:25.637Z,1016.89
2022-09-01T04:14:25.615Z,1016.89
2022-09-01T04:15:25.620Z,1016.88
2022-09-01T04:16:25.651Z,1016.90
2022-09-01T04:17:30.342Z,1016.90
2022-09-01T04:18:25.645Z,1016.90
2022-09-01T04:19:25.729Z,1016.94
2022-09-01T04:20:23.898Z,1016.94
2022-09-01T04:21:23.889Z,1016.93
2022-09-01T04:22:25.622Z,1016.92
2022-09-01T04:23:23.889Z,1016.95
2022-09-01T04:24:23.882Z,1016.92
2022-09-01T04:25:23.875Z,1016.94
2022-09-01T04:26:23.872Z,1016.95
2022-09-01T04:27:25.630Z,1016.94
2022-09-01T04:28:25.623Z,1016.88
2022-09-01T04:29:23.880Z,1016.92
2022-09-01T04:30:25.620Z,1016.88
2022-09-01T04:31:25.801Z,1016.90
2022-09-01T04:32:23.864Z,1016.86
2022-09-01T04:33:25.643Z,1016.88
2022-09-01T04:34:25.638Z,1016.86
2022-09-01T04:35:23.855Z,1016.82
2022-09-01T04:36:25.640Z,1016.85
2022-09-01T04:37:23.839Z,1016.88
2022-09-01T04:38:23.827Z,1016.83
2022-09-01T04:39:25.667Z,1016.85
2022-09-01T04:40:23.859Z,1016.88
2022-09-01T04:41:25.651Z,1016.90
2022-09-01T04:42:23.827Z,1016.90
2022-09-01T04:43:23.820Z,1016.91
2022-09-01T04:44:23.811Z,1016.95
2022-09-01T04:45:23.900Z,1016.94
2022-09-01T04:46:23.804Z,1016.94
2022-09-01T04:47:25.658Z,1016.99
2022-09-01T04:48:23.811Z,1016.95
2022-09-01T04:49:25.652Z,1016.98
2022-09-01T04:50:23.802Z,1016.97
2022-09-01T04:51:23.824Z,1017.01
2022-09-01T04:52:23.784Z,1016.96
2022-09-01T04:53:28.519Z,1017.01
2022-09-01T04:54:23.824Z,1016.99
2022-09-01T04:55:25.658Z,1017.01
2022-09-01T04:56:23.777Z,1016.97
2022-09-01T04:57:23.773Z,1016.98
2022-09-01T04:58:25.671Z,1016.95
2022-09-01T04:59:25.162Z,1016.95
2022-09-01T05:00:25.674Z,1016.94
2022-09-01T05:01:24.821Z,1016.99
2022-09-01T05:02:23.774Z,1016.97
2022-09-01T05:03:23.768Z,1016.95
2022-09-01T05:04:25.665Z,1016.94
2022-09-01T05:05:23.749Z,1016.96
2022-09-01T05:06:25.651Z,1016.92
2022-09-01T05:07:23.787Z,1016.91
2022-09-01T05:08:25.805Z,1016.93
2022-09-01T05:09:25.662Z,1016.92
2022-09-01T05:10:24.731Z,1016.94
2022-09-01T05:11:25.650Z,1016.96
2022-09-01T05:12:23.761Z,1016.97
2022-09-01T05:13:25.667Z,1016.91
2022-09-01T05:14:23.707Z,1016.93
2022-09-01T05:15:25.672Z,1016.93
2022-09-01T05:16:25.392Z,1016.97
2022-09-01T05:17:25.656Z,1016.95
2022-09-01T05:18:24.718Z,1016.92
2022-09-01T05:19:25.680Z,1016.92
2022-09-01T05:20:25.679Z,1016.95
2022-09-01T05:21:23.690Z,1016.94
2022-09-01T05:22:25.675Z,1016.95
2022-09-01T05:23:24.700Z,1016.92
2022-09-01T05:24:25.677Z,1016.90
2022-09-01T05:25:25.181Z,1016.89
2022-09-01T05:26:25.172Z,1016.89
2022-09-01T05:27:23.685Z,1016.89
2022-09-01T05:28:26.716Z,1016.88
2022-09-01T05:29:25.393Z,1016.89
2022-09-01T05:30:25.215Z,1016.91
2022-09-01T05:31:25.249Z,1016.92
2022-09-01T05:32:25.190Z,1016.87
2022-09-01T05:33:25.167Z,1016.90
2022-09-01T05:34:25.179Z,1016.88
2022-09-01T05:35:25.178Z,1016.89
2022-09-01T05:36:23.672Z,1016.91
2022-09-01T05:37:25.201Z,1016.91
2022-09-01T05:38:25.209Z,1016.90
2022-09-01T05:39:25.206Z,1016.91
2022-09-01T05:40:25.302Z,1016.88
2022-09-01T05:41:23.623Z,1016.87
2022-09-01T05:42:25.483Z,1016.84
2022-09-01T05:43:25.293Z,1016.87
2022-09-01T05:44:25.427Z,1016.87
2022-09-01T05:45:25.177Z,1016.88
2022-09-01T05:46:25.271Z,1016.87
2022-09-01T05:47:25.200Z,1016.86
2022-09-01T05:48:23.652Z,1016.88
2022-09-01T05:49:25.206Z,1016.85
2022-09-01T05:50:23.915Z,1016.89
2022-09-01T05:51:43.161Z,1016.90
2022-09-01T05:52:25.249Z,1016.90
2022-09-01T05:53:23.716Z,1016.90
2022-09-01T05:54:23.626Z,1016.92
2022-09-01T05:55:23.621Z,1016.91
2022-09-01T05:56:23.583Z,1016.95
2022-09-01T05:57:35.446Z,1016.94
2022-09-01T05:58:23.603Z,1016.93
2022-09-01T05:59:26.636Z,1016.93
2022-09-01T06:00:43.247Z,1016.98
2022-09-01T06:01:26.266Z,1016.95
2022-09-01T06:02:24.815Z,1016.91
2022-09-01T06:03:24.241Z,1016.96
2022-09-01T06:04:25.217Z,1016.92
2022-09-01T06:05:25.382Z,1016.93
2022-09-01T06:06:25.193Z,1016.95
2022-09-01T06:07:25.634Z,1016.93
2022-09-01T06:08:25.200Z,1016.97
2022-09-01T06:09:25.528Z,1016.92
2022-09-01T06:10:25.216Z,1016.96
2022-09-01T06:11:25.202Z,1016.94
2022-09-01T06:12:25.252Z,1016.94
2022-09-01T06:13:27.395Z,1016.97
2022-09-01T06:14:23.533Z,1016.94
2022-09-01T06:15:23.513Z,1016.91
2022-09-01T06:16:25.300Z,1016.91
2022-09-01T06:17:25.649Z,1016.94
2022-09-01T06:18:23.545Z,1016.89
2022-09-01T06:19:23.509Z,1016.93
2022-09-01T06:20:23.521Z,1016.92
2022-09-01T06:21:23.509Z,1016.90
2022-09-01T06:22:23.518Z,1016.90
2022-09-01T06:23:25.223Z,1016.94
2022-09-01T06:24:23.490Z,1016.93
2022-09-01T06:25:25.245Z,1016.93
2022-09-01T06:26:23.500Z,1016.94
2022-09-01T06:27:25.295Z,1016.96
2022-09-01T06:28:25.764Z,1016.94
2022-09-01T06:29:30.359Z,1016.92
2022-09-01T06:30:24.620Z,1016.91
2022-09-01T06:31:23.544Z,1016.92
2022-09-01T06:32:23.504Z,1016.92
2022-09-01T06:33:25.252Z,1016.95
2022-09-01T06:34:23.469Z,1016.93
2022-09-01T06:35:25.322Z,1016.94
2022-09-01T06:36:23.570Z,1016.91
2022-09-01T06:37:25.226Z,1016.93
2022-09-01T06:38:24.751Z,1016.95
2022-09-01T06:39:23.468Z,1016.97
2022-09-01T06:40:25.502Z,1016.99
2022-09-01T06:41:23.456Z,1016.97
2022-09-01T06:42:25.455Z,1017.00
2022-09-01T06:43:23.670Z,1017.00
2022-09-01T06:44:23.509Z,1016.99
2022-09-01T06:45:25.287Z,1017.00
2022-09-01T06:46:23.579Z,1017.01
2022-09-01T06:47:25.303Z,1017.01
2022-09-01T06:48:23.487Z,1017.04
2022-09-01T06:49:25.251Z,1017.05
2022-09-01T06:51:25.270Z,1017.07
2022-09-01T06:52:23.520Z,1017.06
2022-09-01T06:53:34.354Z,1017.08
2022-09-01T06:54:25.308Z,1017.12
2022-09-01T06:55:23.557Z,1017.11
2022-09-01T06:56:25.250Z,1017.10
2022-09-01T06:58:26.255Z,1017.13
2022-09-01T06:59:23.424Z,1017.12
2022-09-01T07:00:23.484Z,1017.15
2022-09-01T07:01:24.955Z,1017.18
2022-09-01T07:02:26.318Z,1017.22
2022-09-01T07:03:26.464Z,1017.24
2022-09-01T07:04:25.366Z,1017.23
2022-09-01T07:08:25.257Z,1017.24
2022-09-01T07:09:47.154Z,1017.24
2022-09-01T07:10:24.574Z,1017.26
2022-09-01T07:12:26.267Z,1017.23
2022-09-01T07:13:25.286Z,1017.23
2022-09-01T07:14:25.432Z,1017.26
2022-09-01T07:16:33.410Z,1017.25
2022-09-01T07:17:25.259Z,1017.25
2022-09-01T07:18:23.579Z,1017.24
2022-09-01T07:19:48.249Z,1017.26
2022-09-01T07:20:23.610Z,1017.26
2022-09-01T07:21:42.440Z,1017.28
2022-09-01T07:23:25.317Z,1017.28
2022-09-01T07:24:29.411Z,1017.22
2022-09-01T07:25:34.988Z,1017.22
2022-09-01T07:26:26.391Z,1017.23
2022-09-01T07:27:25.218Z,1017.21
2022-09-01T07:28:25.506Z,1017.17
2022-09-01T07:29:25.308Z,1017.26
2022-09-01T07:30:26.698Z,1017.21
2022-09-01T07:33:48.030Z,1017.21
2022-09-01T07:34:40.854Z,1017.19
2022-09-01T07:35:23.398Z,1017.22
2022-09-01T07:36:26.888Z,1017.24
2022-09-01T07:42:56.481Z,1017.27
2022-09-01T07:43:23.396Z,1017.20
2022-09-01T07:44:23.433Z,1017.20
2022-09-01T07:45:26.404Z,1017.23
2022-09-01T07:46:38.859Z,1017.19
2022-09-01T07:49:35.612Z,1017.17
2022-09-01T07:51:35.243Z,1017.22
2022-09-01T07:51:38.897Z,1017.21
2022-09-01T07:52:23.435Z,1017.19
2022-09-01T07:53:23.767Z,1017.18
2022-09-01T07:54:23.519Z,1017.20
2022-09-01T07:55:25.417Z,1017.22
2022-09-01T07:56:24.533Z,1017.22
2022-09-01T07:57:24.838Z,1017.22
2022-09-01T07:58:26.803Z,1017.23
2022-09-01T07:59:23.407Z,1017.22
2022-09-01T08:00:23.432Z,1017.21
2022-09-01T08:01:23.472Z,1017.22
2022-09-01T08:02:25.480Z,1017.25
2022-09-01T08:03:23.774Z,1017.22
2022-09-01T08:04:23.411Z,1017.25
2022-09-01T08:05:23.430Z,1017.25
2022-09-01T08:06:25.318Z,1017.19
2022-09-01T08:07:23.395Z,1017.22
2022-09-01T08:08:27.944Z,1017.21
2022-09-01T08:09:37.845Z,1017.20
2022-09-01T08:10:25.366Z,1017.23
2022-09-01T08:11:40.063Z,1017.22
2022-09-01T08:12:28.818Z,1017.21
2022-09-01T08:13:23.482Z,1017.21
2022-09-01T08:14:23.396Z,1017.19
2022-09-01T08:15:41.329Z,1017.20
2022-09-01T08:16:23.473Z,1017.22
2022-09-01T08:18:24.879Z,1017.24
2022-09-01T08:19:23.465Z,1017.25
2022-09-01T08:20:24.247Z,1017.23
2022-09-01T08:21:23.544Z,1017.28
2022-09-01T08:22:54.612Z,1017.29
2022-09-01T08:23:34.850Z,1017.27
2022-09-01T08:24:53.416Z,1017.27
2022-09-01T08:25:25.130Z,1017.23
2022-09-01T08:26:23.398Z,1017.28
2022-09-01T08:27:23.402Z,1017.26
2022-09-01T08:28:27.469Z,1017.26
2022-09-01T08:29:26.352Z,1017.26
2022-09-01T08:30:23.416Z,1017.21
2022-09-01T08:31:23.472Z,1017.22
2022-09-01T08:32:23.566Z,1017.22
2022-09-01T08:33:23.425Z,1017.20
2022-09-01T08:34:23.441Z,1017.20
2022-09-01T08:35:25.361Z,1017.21
2022-09-01T08:36:25.730Z,1017.24
2022-09-01T08:37:23.463Z,1017.22
2022-09-01T08:38:25.347Z,1017.23
2022-09-01T08:39:23.418Z,1017.21
2022-09-01T08:40:23.513Z,1017.23
2022-09-01T08:41:28.706Z,1017.23
2022-09-01T08:42:23.918Z,1017.22
2022-09-01T08:43:25.506Z,1017.25
2022-09-01T08:44:29.893Z,1017.24
2022-09-01T08:45:26.466Z,1017.20
2022-09-01T08:46:26.426Z,1017.16
2022-09-01T08:47:39.470Z,1017.17
2022-09-01T08:49:16.099Z,1017.11
2022-09-01T08:49:26.583Z,1017.12
2022-09-01T08:51:25.409Z,1017.12
2022-09-01T08:52:26.407Z,1017.15
2022-09-01T08:53:25.347Z,1017.10
2022-09-01T08:54:29.353Z,1017.15
2022-09-01T08:55:25.390Z,1017.12
2022-09-01T08:56:25.906Z,1017.16
2022-09-01T08:57:24.423Z,1017.15
2022-09-01T08:59:27.559Z,1017.06
2022-09-01T09:00:23.470Z,1017.14
2022-09-01T09:01:30.533Z,1017.15
2022-09-01T09:02:26.106Z,1017.14
2022-09-01T09:03:25.428Z,1017.18
2022-09-01T09:04:25.413Z,1017.12
2022-09-01T09:05:29.894Z,1017.13
2022-09-01T09:06:23.474Z,1017.12
2022-09-01T09:07:23.463Z,1017.13
2022-09-01T09:08:26.666Z,1017.18
2022-09-01T09:09:32.369Z,1017.15
2022-09-01T09:10:25.650Z,1017.15
2022-09-01T09:11:25.386Z,1017.14
2022-09-01T09:12:23.533Z,1017.11
2022-09-01T09:13:25.505Z,1017.11
2022-09-01T09:14:25.386Z,1017.08
2022-09-01T09:15:23.725Z,1017.08
2022-09-01T09:16:25.990Z,1017.11
2022-09-01T09:17:25.414Z,1017.11
2022-09-01T09:18:38.782Z,1017.15
2022-09-01T09:19:25.523Z,1017.15
2022-09-01T09:20:25.377Z,1017.07
2022-09-01T09:21:23.669Z,1017.04
2022-09-01T09:22:25.507Z,1017.09
2022-09-01T09:23:26.910Z,1017.11
2022-09-01T09:24:25.139Z,1017.08
2022-09-01T09:25:23.895Z,1017.08
2022-09-01T09:26:23.918Z,1017.12
2022-09-01T09:27:25.262Z,1017.11
2022-09-01T09:28:26.190Z,1017.09
2022-09-01T09:29:24.293Z,1017.09
2022-09-01T09:30:23.563Z,1017.06
2022-09-01T09:31:23.587Z,1017.02
2022-09-01T09:32:35.507Z,1017.04
2022-09-01T09:33:51.689Z,1017.04
2022-09-01T09:34:26.838Z,1017.07
2022-09-01T09:35:35.391Z,1017.07
2022-09-01T09:36:55.342Z,1017.02
2022-09-01T09:37:23.537Z,1017.06
2022-09-01T09:38:26.518Z,1017.02
2022-09-01T09:39:31.841Z,1017.00
2022-09-01T09:40:25.350Z,1017.02
2022-09-01T09:41:27.669Z,1017.04
2022-09-01T09:42:23.498Z,1016.99
2022-09-01T09:43:25.636Z,1016.97
2022-09-01T09:44:23.517Z,1016.90
2022-09-01T09:45:23.528Z,1016.97
2022-09-01T09:46:30.639Z,1017.01
2022-09-01T09:47:42.688Z,1017.03
2022-09-01T09:48:24.464Z,1016.91
2022-09-01T09:49:34.905Z,1016.94
2022-09-01T09:50:27.042Z,1016.95
2022-09-01T09:51:23.571Z,1016.94
2022-09-01T09:52:25.450Z,1016.95
2022-09-01T09:53:25.415Z,1016.91
2022-09-01T09:54:26.252Z,1016.90
2022-09-01T09:55:25.425Z,1016.91
2022-09-01T09:56:26.466Z,1016.88
2022-09-01T09:57:25.416Z,1016.86
2022-09-01T09:58:25.423Z,1016.86
2022-09-01T09:59:39.870Z,1016.85
2022-09-01T10:00:25.806Z,1016.88
2022-09-01T10:01:25.493Z,1016.87
2022-09-01T10:12:43.542Z,1016.72
2022-09-01T10:13:43.469Z,1016.78
2022-09-01T10:14:53.362Z,1016.77
2022-09-01T10:15:44.059Z,1016.74
2022-09-01T10:16:44.095Z,1016.75
2022-09-01T10:17:43.537Z,1016.70
2022-09-01T10:18:42.482Z,1016.70
2022-09-01T10:19:44.080Z,1016.71
2022-09-01T10:20:42.473Z,1016.70
2022-09-01T10:21:43.461Z,1016.69
2022-09-01T10:22:42.504Z,1016.69
2022-09-01T10:23:42.488Z,1016.68
2022-09-01T10:24:45.790Z,1016.71
2022-09-01T10:25:42.522Z,1016.69
2022-09-01T10:26:42.473Z,1016.66
2022-09-01T10:27:43.540Z,1016.63
2022-09-01T10:28:49.746Z,1016.65
2022-09-01T10:29:47.723Z,1016.62
2022-09-01T10:30:42.715Z,1016.66
2022-09-01T10:31:44.093Z,1016.60
2022-09-01T10:32:50.714Z,1016.61
2022-09-01T10:33:44.888Z,1016.55
2022-09-01T10:34:49.331Z,1016.57
2022-09-01T10:35:48.397Z,1016.54
2022-09-01T10:36:46.966Z,1016.51
2022-09-01T10:37:50.057Z,1016.53
2022-09-01T10:38:50.482Z,1016.47
2022-09-01T10:39:43.491Z,1016.51
2022-09-01T10:40:43.630Z,1016.47
2022-09-01T10:41:42.666Z,1016.43
2022-09-01T10:42:45.416Z,1016.42
2022-09-01T10:43:42.753Z,1016.33
2022-09-01T10:44:45.077Z,1016.39
2022-09-01T10:45:45.207Z,1016.46
2022-09-01T10:48:54.876Z,1016.42
2022-09-01T10:49:28.230Z,1016.34
2022-09-01T10:50:35.993Z,1016.40
2022-09-01T10:51:35.391Z,1016.41
2022-09-01T10:52:29.837Z,1016.40
2022-09-01T10:53:28.332Z,1016.36
2022-09-01T10:54:29.812Z,1016.33
2022-09-01T10:55:28.263Z,1016.30
2022-09-01T10:56:35.452Z,1016.36
2022-09-01T10:57:30.661Z,1016.26
2022-09-01T10:59:33.827Z,1016.31
2022-09-01T11:00:36.263Z,1016.35
2022-09-01T11:01:47.946Z,1016.41
2022-09-01T11:02:36.885Z,1016.36
2022-09-01T11:03:30.127Z,1016.29
2022-09-01T11:04:28.515Z,1016.32
2022-09-01T11:05:33.122Z,1016.29
2022-09-01T11:06:33.213Z,1016.35
2022-09-01T11:07:50.413Z,1016.38
2022-09-01T11:08:34.987Z,1016.29
2022-09-01T11:09:28.346Z,1016.29
2022-09-01T11:10:32.787Z,1016.27
2022-09-01T11:11:31.340Z,1016.31
2022-09-01T11:12:30.360Z,1016.37
2022-09-01T11:13:28.445Z,1016.35
2022-09-01T11:14:33.457Z,1016.31
2022-09-01T11:15:45.925Z,1016.33
2022-09-01T11:17:30.475Z,1016.31
2022-09-01T11:18:28.395Z,1016.29
2022-09-01T11:19:28.652Z,1016.28
2022-09-01T11:20:29.809Z,1016.27
2022-09-01T11:21:36.637Z,1016.24
2022-09-01T11:22:31.401Z,1016.22
2022-09-01T11:23:28.495Z,1016.23
2022-09-01T11:24:34.612Z,1016.26
2022-09-01T11:25:39.883Z,1016.22
2022-09-01T11:26:29.773Z,1016.20
2022-09-01T11:27:28.713Z,1016.24
2022-09-01T11:28:32.881Z,1016.21
2022-09-01T11:29:28.521Z,1016.20
2022-09-01T11:30:28.446Z,1016.20
2022-09-01T11:31:42.892Z,1016.17
2022-09-01T11:32:30.078Z,1016.24
2022-09-01T11:33:29.704Z,1016.20
2022-09-01T11:34:32.665Z,1016.19
2022-09-01T11:35:29.644Z,1016.18
2022-09-01T11:36:28.455Z,1016.19
2022-09-01T11:37:30.313Z,1016.18
2022-09-01T11:38:29.568Z,1016.16
2022-09-01T11:39:28.572Z,1016.16
2022-09-01T11:40:29.738Z,1016.15
2022-09-01T11:41:28.620Z,1016.10
2022-09-01T11:42:28.546Z,1016.03
2022-09-01T11:43:31.453Z,1016.08
2022-09-01T11:44:30.416Z,1016.18
2022-09-01T11:45:28.694Z,1016.12
2022-09-01T11:46:30.482Z,1016.10
2022-09-01T11:47:28.625Z,1016.09
2022-09-01T11:48:28.751Z,1016.16
2022-09-01T11:49:28.781Z,1016.12
2022-09-01T11:50:29.082Z,1016.10
2022-09-01T11:51:30.465Z,1016.11
2022-09-01T11:52:28.559Z,1016.13
2022-09-01T11:53:30.423Z,1016.04
2022-09-01T11:54:29.159Z,1016.08
2022-09-01T11:55:28.585Z,1016.08
2022-09-01T11:56:31.399Z,1016.10
2022-09-01T11:57:37.753Z,1016.11
2022-09-01T11:58:28.802Z,1016.09
2022-09-01T12:00:52.809Z,1016.15
2022-09-01T12:01:29.571Z,1016.16
2022-09-01T12:02:28.910Z,1016.10
2022-09-01T12:03:30.616Z,1016.08
2022-09-01T12:04:28.782Z,1016.09
2022-09-01T12:05:28.701Z,1016.09
2022-09-01T12:06:28.638Z,1016.05
2022-09-01T12:07:28.791Z,1016.06
2022-09-01T12:08:30.434Z,1016.05
2022-09-01T12:09:28.744Z,1016.07
2022-09-01T12:10:31.512Z,1016.02
2022-09-01T12:11:28.892Z,1016.12
2022-09-01T12:12:30.660Z,1016.09
2022-09-01T12:13:29.929Z,1016.10
2022-09-01T12:14:43.410Z,1016.11
2022-09-01T12:15:28.818Z,1016.18
2022-09-01T12:16:29.548Z,1016.17
2022-09-01T12:17:30.807Z,1016.14
2022-09-01T12:18:30.476Z,1016.17
2022-09-01T12:19:36.045Z,1016.16
2022-09-01T12:20:29.652Z,1016.12
2022-09-01T12:21:33.268Z,1016.13
2022-09-01T12:22:28.979Z,1016.14
2022-09-01T12:23:30.984Z,1016.13
2022-09-01T12:24:28.771Z,1016.15
2022-09-01T12:25:30.428Z,1016.14
2022-09-01T12:26:30.508Z,1016.15
2022-09-01T12:27:30.425Z,1016.15
2022-09-01T12:28:30.705Z,1016.12
2022-09-01T12:29:32.012Z,1016.04
2022-09-01T12:30:28.800Z,1016.08
2022-09-01T12:31:28.803Z,1016.14
2022-09-01T12:32:28.803Z,1016.11
2022-09-01T12:33:29.949Z,1016.10
2022-09-01T12:34:28.786Z,1016.05
2022-09-01T12:35:28.784Z,1016.06
2022-09-01T12:36:28.834Z,1016.02
2022-09-01T12:37:28.798Z,1016.06
2022-09-01T12:38:30.481Z,1016.02
2022-09-01T12:39:28.848Z,1016.02
2022-09-01T12:40:28.846Z,1016.04
2022-09-01T12:41:30.463Z,1016.02
2022-09-01T12:42:40.932Z,1016.01
2022-09-01T12:43:30.451Z,1016.03
2022-09-01T12:44:30.830Z,1016.06
2022-09-01T12:45:30.531Z,1016.03
2022-09-01T12:46:30.446Z,1016.02
2022-09-01T12:47:30.452Z,1015.98
2022-09-01T12:49:30.470Z,1015.93
2022-09-01T12:50:30.503Z,1015.99
2022-09-01T12:51:31.630Z,1015.97
2022-09-01T12:52:30.513Z,1015.91
2022-09-01T12:53:30.737Z,1015.96
2022-09-01T12:54:30.474Z,1015.87
2022-09-01T12:56:30.474Z,1015.93
2022-09-01T12:57:30.535Z,1015.89
2022-09-01T12:58:30.474Z,1015.89
2022-09-01T12:59:37.402Z,1015.88
2022-09-01T13:00:28.958Z,1015.91
2022-09-01T13:01:30.589Z,1015.90
2022-09-01T13:02:30.716Z,1015.92
2022-09-01T13:03:34.582Z,1015.91
2022-09-01T13:04:30.239Z,1015.90
2022-09-01T13:05:33.576Z,1015.89
2022-09-01T13:06:31.032Z,1015.89
2022-09-01T13:07:30.995Z,1015.84
2022-09-01T13:08:31.973Z,1015.82
2022-09-01T13:09:37.050Z,1015.89
2022-09-01T13:10:43.331Z,1015.83
2022-09-01T13:12:06.033Z,1015.82
2022-09-01T13:12:29.072Z,1015.80
2022-09-01T13:13:29.256Z,1015.80
2022-09-01T13:14:29.204Z,1015.76
2022-09-01T13:15:29.075Z,1015.75
2022-09-01T13:16:30.159Z,1015.73
2022-09-01T13:17:30.513Z,1015.76
2022-09-01T13:18:30.431Z,1015.70
2022-09-01T13:19:31.987Z,1015.72
2022-09-01T13:20:29.127Z,1015.81
2022-09-01T13:21:31.097Z,1015.78
2022-09-01T13:22:30.268Z,1015.70
2022-09-01T13:23:30.162Z,1015.73
2022-09-01T13:24:31.837Z,1015.68
2022-09-01T13:25:29.180Z,1015.73
2022-09-01T13:26:31.027Z,1015.72
2022-09-01T13:27:31.010Z,1015.68
2022-09-01T13:28:31.591Z,1015.65
2022-09-01T13:29:30.214Z,1015.65
2022-09-01T13:30:30.996Z,1015.64
2022-09-01T13:31:30.640Z,1015.65
2022-09-01T13:32:31.143Z,1015.63
2022-09-01T13:34:08.723Z,1015.61
2022-09-01T13:34:36.981Z,1015.57
2022-09-01T13:35:29.293Z,1015.55
2022-09-01T13:36:49.241Z,1015.56
2022-09-01T13:37:32.023Z,1015.55
2022-09-01T13:38:31.527Z,1015.54
2022-09-01T13:39:30.566Z,1015.49
2022-09-01T13:40:30.344Z,1015.42
2022-09-01T13:41:29.313Z,1015.45
2022-09-01T13:42:29.497Z,1015.40
2022-09-01T13:43:30.277Z,1015.37
2022-09-01T13:44:31.028Z,1015.42
2022-09-01T13:45:31.083Z,1015.39
2022-09-01T13:46:29.433Z,1015.31
2022-09-01T13:47:31.087Z,1015.35
2022-09-01T13:49:02.302Z,1015.43
2022-09-01T13:51:14.392Z,1015.35
2022-09-01T13:51:29.468Z,1015.36
2022-09-01T13:52:35.565Z,1015.32
2022-09-01T13:53:31.722Z,1015.34
2022-09-01T13:54:31.033Z,1015.37
2022-09-01T13:55:29.475Z,1015.33
2022-09-01T13:56:29.470Z,1015.37
2022-09-01T13:57:36.200Z,1015.33
2022-09-01T13:58:31.042Z,1015.35
2022-09-01T13:59:29.493Z,1015.35
2022-09-01T14:00:31.063Z,1015.35
2022-09-01T14:01:29.521Z,1015.31
2022-09-01T14:02:29.527Z,1015.33
2022-09-01T14:03:31.057Z,1015.31
2022-09-01T14:04:29.584Z,1015.31
2022-09-01T14:05:29.562Z,1015.30
2022-09-01T14:06:29.574Z,1015.32
2022-09-01T14:07:31.563Z,1015.35
2022-09-01T14:08:29.589Z,1015.33
2022-09-01T14:09:29.594Z,1015.32
2022-09-01T14:10:29.610Z,1015.29
2022-09-01T14:11:29.623Z,1015.29
2022-09-01T14:12:31.565Z,1015.31
2022-09-01T14:13:29.639Z,1015.26
2022-09-01T14:15:10.921Z,1015.26
2022-09-01T14:15:31.563Z,1015.23
2022-09-01T14:16:31.598Z,1015.21
2022-09-01T14:17:31.558Z,1015.20
2022-09-01T14:18:29.697Z,1015.15
2022-09-01T14:19:31.556Z,1015.20
2022-09-01T14:20:31.577Z,1015.11
2022-09-01T14:21:29.735Z,1015.12
2022-09-01T14:22:34.163Z,1015.05
2022-09-01T14:23:29.764Z,1015.11
2022-09-01T14:24:31.564Z,1015.05
2022-09-01T14:25:31.589Z,1015.06
2022-09-01T14:26:29.794Z,1015.11
2022-09-01T14:27:31.581Z,1015.09
2022-09-01T14:28:31.604Z,1015.09
2022-09-01T14:29:31.582Z,1015.06
2022-09-01T14:30:31.971Z,1015.15
2022-09-01T14:31:31.585Z,1015.09
2022-09-01T14:32:31.600Z,1015.13
2022-09-01T14:33:31.587Z,1015.17
2022-09-01T14:34:31.625Z,1015.15
2022-09-01T14:35:29.909Z,1015.10
2022-09-01T14:36:31.598Z,1015.11
2022-09-01T14:37:31.593Z,1015.09
2022-09-01T14:38:31.589Z,1015.06
2022-09-01T14:39:29.951Z,1015.08
2022-09-01T14:40:30.011Z,1015.06
2022-09-01T14:41:29.971Z,1015.02
2022-09-01T14:42:31.601Z,1014.98
2022-09-01T14:43:31.620Z,1014.96
2022-09-01T14:44:30.001Z,1014.93
2022-09-01T14:45:30.021Z,1014.93
2022-09-01T14:46:30.080Z,1014.88
2022-09-01T14:47:30.053Z,1014.96
2022-09-01T14:48:31.611Z,1014.92
2022-09-01T14:49:31.068Z,1014.92
2022-09-01T14:50:31.079Z,1014.93
2022-09-01T14:52:31.114Z,1014.89
2022-09-01T14:53:30.109Z,1014.85
2022-09-01T14:54:31.616Z,1014.83
2022-09-01T14:55:30.149Z,1014.89
2022-09-01T14:56:32.120Z,1014.90
2022-09-01T14:57:36.316Z,1014.84
2022-09-01T14:58:30.167Z,1014.87
2022-09-01T14:59:31.182Z,1014.83
2022-09-01T15:00:30.329Z,1014.84
2022-09-01T15:01:34.573Z,1014.80
2022-09-01T15:02:30.220Z,1014.82
2022-09-01T15:03:32.138Z,1014.77
2022-09-01T15:04:30.350Z,1014.78
2022-09-01T15:05:37.669Z,1014.80
2022-09-01T15:06:30.274Z,1014.86
2022-09-01T15:07:32.133Z,1014.83
2022-09-01T15:08:30.282Z,1014.77
2022-09-01T15:09:31.652Z,1014.69
2022-09-01T15:10:30.305Z,1014.75
2022-09-01T15:11:30.310Z,1014.83
2022-09-01T15:12:32.144Z,1014.74
2022-09-01T15:13:30.442Z,1014.76
2022-09-01T15:14:30.345Z,1014.74
2022-09-01T15:15:32.152Z,1014.73
2022-09-01T15:16:30.371Z,1014.76
2022-09-01T15:17:32.138Z,1014.74
2022-09-01T15:18:32.149Z,1014.71
2022-09-01T15:19:32.153Z,1014.73
2022-09-01T15:20:32.140Z,1014.72
2022-09-01T15:21:32.145Z,1014.71
2022-09-01T15:22:32.144Z,1014.70
2022-09-01T15:23:32.199Z,1014.70
2022-09-01T15:24:32.174Z,1014.69
2022-09-01T15:25:32.144Z,1014.75
2022-09-01T15:26:32.158Z,1014.72
2022-09-01T15:27:32.148Z,1014.74
2022-09-01T15:28:32.164Z,1014.68
2022-09-01T15:29:32.211Z,1014.68
2022-09-01T15:30:32.160Z,1014.63
2022-09-01T15:31:32.976Z,1014.64
2022-09-01T15:32:30.519Z,1014.64
2022-09-01T15:33:32.182Z,1014.68
2022-09-01T15:34:32.167Z,1014.73
2022-09-01T15:35:32.178Z,1014.70
2022-09-01T15:36:30.560Z,1014.72
2022-09-01T15:37:32.167Z,1014.69
2022-09-01T15:38:32.308Z,1014.72
2022-09-01T15:39:37.988Z,1014.68
2022-09-01T15:40:30.657Z,1014.69
2022-09-01T15:41:32.164Z,1014.68
2022-09-01T15:42:32.180Z,1014.68
2022-09-01T15:43:32.169Z,1014.67
2022-09-01T15:44:32.176Z,1014.67
2022-09-01T15:45:32.177Z,1014.66
2022-09-01T15:46:30.692Z,1014.64
2022-09-01T15:47:32.287Z,1014.64
2022-09-01T15:48:30.644Z,1014.64
2022-09-01T15:49:30.662Z,1014.63
2022-09-01T15:50:32.175Z,1014.61
2022-09-01T15:51:32.209Z,1014.66
2022-09-01T15:52:32.178Z,1014.62
2022-09-01T15:53:32.202Z,1014.54
2022-09-01T15:54:32.180Z,1014.56
2022-09-01T15:55:32.180Z,1014.55
2022-09-01T15:56:32.199Z,1014.53
2022-09-01T15:57:30.722Z,1014.55
2022-09-01T15:58:44.472Z,1014.51
2022-09-01T15:59:32.686Z,1014.53
2022-09-01T16:00:30.801Z,1014.52
2022-09-01T16:12:02.130Z,1014.46
2022-09-01T16:13:02.108Z,1014.45
2022-09-01T16:14:00.557Z,1014.54
2022-09-01T16:15:02.131Z,1014.47
2022-09-01T16:16:02.158Z,1014.46
2022-09-01T16:17:02.115Z,1014.42
2022-09-01T16:18:00.539Z,1014.47
2022-09-01T16:19:02.134Z,1014.40
2022-09-01T16:20:02.110Z,1014.44
2022-09-01T16:21:01.553Z,1014.41
2022-09-01T16:22:02.125Z,1014.36
2022-09-01T16:23:02.129Z,1014.38
2022-09-01T16:24:05.703Z,1014.41
2022-09-01T16:25:02.125Z,1014.41
2022-09-01T16:26:02.107Z,1014.34
2022-09-01T16:27:02.123Z,1014.42
2022-09-01T16:28:01.216Z,1014.37
2022-09-01T16:29:02.134Z,1014.37
2022-09-01T16:30:02.122Z,1014.38
2022-09-01T16:31:00.630Z,1014.33
2022-09-01T16:32:00.572Z,1014.35
2022-09-01T16:33:00.588Z,1014.34
2022-09-01T16:34:01.632Z,1014.36
2022-09-01T16:35:01.725Z,1014.36
2022-09-01T16:36:00.594Z,1014.34
2022-09-01T16:37:02.146Z,1014.34
2022-09-01T16:38:00.588Z,1014.33
2022-09-01T16:39:00.602Z,1014.37
2022-09-01T16:40:03.976Z,1014.30
2022-09-01T16:41:00.589Z,1014.35
2022-09-01T16:42:02.141Z,1014.31
2022-09-01T16:43:01.605Z,1014.30
2022-09-01T16:44:02.156Z,1014.30
2022-09-01T16:45:01.655Z,1014.30
2022-09-01T16:46:00.605Z,1014.30
2022-09-01T16:47:00.638Z,1014.30
2022-09-01T16:48:00.615Z,1014.29
2022-09-01T16:49:02.150Z,1014.30
2022-09-01T16:50:02.185Z,1014.29
2022-09-01T16:51:00.630Z,1014.32
2022-09-01T16:52:00.622Z,1014.25
2022-09-01T16:53:00.626Z,1014.24